sensor_id;sensor_type;location;lat;lon;timestamp;temperature;humidity
3478;DHT22;37937;61.490;23.506;2022-10-14T00:00:50;10.00;99.90
3478;DHT22;37937;61.490;23.506;2022-10-14T00:03:16;9.90;99.90
3478;DHT22;37937;61.490;23.506;2022-10-14T00:05:42;10.00;99.90
3478;DHT22;37937;61.490;23.506;2022-10-14T00:08:08;10.00;99.90
3478;DHT22;37937;61.490;23.506;2022-10-14T00:10:35;10.00;99.90
3478;DHT22;37937;61.490;23.506;2022-10-14T00:13:01;10.00;99.90
3478;DHT22;37937;61.490;23.506;2022-10-14T00:15:27;9.90;99.90
3478;DHT22;37937;61.490;23.506;2022-10-14T00:17:52;9.90;99.90
3478;DHT22;37937;61.490;23.506;2022-10-14T00:20:18;10.00;99.90
3478;DHT22;37937;61.490;23.506;2022-10-14T00:22:43;10.00;99.90
3478;DHT22;37937;61.490;23.506;2022-10-14T00:25:09;10.00;99.90
3478;DHT22;37937;61.490;23.506;2022-10-14T00:27:35;10.00;99.90
3478;DHT22;37937;61.490;23.506;2022-10-14T00:30:00;10.00;99.90
3478;DHT22;37937;61.490;23.506;2022-10-14T00:32:26;10.10;99.90
3478;DHT22;37937;61.490;23.506;2022-10-14T00:34:52;10.00;99.90
3478;DHT22;37937;61.490;23.506;2022-10-14T00:37:17;10.00;99.90
3478;DHT22;37937;61.490;23.506;2022-10-14T00:39:43;10.10;99.90
3478;DHT22;37937;61.490;23.506;2022-10-14T00:42:11;10.00;99.90
3478;DHT22;37937;61.490;23.506;2022-10-14T00:45:21;10.10;99.90
3478;DHT22;37937;61.490;23.506;2022-10-14T00:47:26;10.00;99.90
3478;DHT22;37937;61.490;23.506;2022-10-14T00:49:52;10.10;99.90
3478;DHT22;37937;61.490;23.506;2022-10-14T00:52:19;10.10;99.90
3478;DHT22;37937;61.490;23.506;2022-10-14T00:54:53;10.10;99.90
3478;DHT22;37937;61.490;23.506;2022-10-14T00:57:19;10.10;99.90
3478;DHT22;37937;61.490;23.506;2022-10-14T00:59:46;10.10;99.90
3478;DHT22;37937;61.490;23.506;2022-10-14T01:02:12;10.10;99.90
3478;DHT22;37937;61.490;23.506;2022-10-14T01:04:38;10.10;99.90
3478;DHT22;37937;61.490;23.506;2022-10-14T01:09:40;10.10;99.90
3478;DHT22;37937;61.490;23.506;2022-10-14T01:15:02;10.00;99.90
3478;DHT22;37937;61.490;23.506;2022-10-14T01:17:41;10.10;99.90
3478;DHT22;37937;61.490;23.506;2022-10-14T01:25:24;10.00;99.90
3478;DHT22;37937;61.490;23.506;2022-10-14T01:31:11;10.00;99.90
3478;DHT22;37937;61.490;23.506;2022-10-14T01:33:34;10.10;99.90
3478;DHT22;37937;61.490;23.506;2022-10-14T01:36:03;10.10;99.90
3478;DHT22;37937;61.490;23.506;2022-10-14T01:41:11;10.10;99.90
3478;DHT22;37937;61.490;23.506;2022-10-14T01:43:39;10.10;99.90
3478;DHT22;37937;61.490;23.506;2022-10-14T01:46:05;10.10;99.90
3478;DHT22;37937;61.490;23.506;2022-10-14T01:48:34;10.00;99.90
3478;DHT22;37937;61.490;23.506;2022-10-14T01:51:02;10.10;99.90
3478;DHT22;37937;61.490;23.506;2022-10-14T01:53:30;10.20;99.90
3478;DHT22;37937;61.490;23.506;2022-10-14T01:55:57;10.10;99.90
3478;DHT22;37937;61.490;23.506;2022-10-14T01:58:25;10.20;99.90
3478;DHT22;37937;61.490;23.506;2022-10-14T02:00:51;10.10;99.90
3478;DHT22;37937;61.490;23.506;2022-10-14T02:03:16;10.10;99.90
3478;DHT22;37937;61.490;23.506;2022-10-14T02:05:46;10.10;99.90
3478;DHT22;37937;61.490;23.506;2022-10-14T02:08:19;10.10;99.90
3478;DHT22;37937;61.490;23.506;2022-10-14T02:14:07;10.10;99.90
3478;DHT22;37937;61.490;23.506;2022-10-14T02:16:18;10.10;99.90
3478;DHT22;37937;61.490;23.506;2022-10-14T02:18:49;10.10;99.90
3478;DHT22;37937;61.490;23.506;2022-10-14T02:21:17;10.10;99.90
3478;DHT22;37937;61.490;23.506;2022-10-14T02:23:48;10.10;99.90
3478;DHT22;37937;61.490;23.506;2022-10-14T02:26:16;10.00;99.90
3478;DHT22;37937;61.490;23.506;2022-10-14T02:28:43;9.90;99.90
3478;DHT22;37937;61.490;23.506;2022-10-14T02:31:11;10.00;99.90
3478;DHT22;37937;61.490;23.506;2022-10-14T02:33:41;10.00;99.90
3478;DHT22;37937;61.490;23.506;2022-10-14T02:36:08;10.10;99.90
3478;DHT22;37937;61.490;23.506;2022-10-14T02:38:36;10.00;99.90
3478;DHT22;37937;61.490;23.506;2022-10-14T02:41:11;10.00;99.90
3478;DHT22;37937;61.490;23.506;2022-10-14T02:43:37;10.10;99.90
3478;DHT22;37937;61.490;23.506;2022-10-14T02:46:03;10.00;99.90
3478;DHT22;37937;61.490;23.506;2022-10-14T02:48:29;10.10;99.90
3478;DHT22;37937;61.490;23.506;2022-10-14T02:50:56;10.10;99.90
3478;DHT22;37937;61.490;23.506;2022-10-14T02:53:24;10.10;99.90
3478;DHT22;37937;61.490;23.506;2022-10-14T02:55:49;10.10;99.90
3478;DHT22;37937;61.490;23.506;2022-10-14T02:58:15;10.10;99.90
3478;DHT22;37937;61.490;23.506;2022-10-14T03:00:41;10.00;99.90
3478;DHT22;37937;61.490;23.506;2022-10-14T03:03:07;10.00;99.90
3478;DHT22;37937;61.490;23.506;2022-10-14T03:05:33;10.10;99.90
3478;DHT22;37937;61.490;23.506;2022-10-14T03:07:58;10.10;99.90
3478;DHT22;37937;61.490;23.506;2022-10-14T03:10:24;10.10;99.90
3478;DHT22;37937;61.490;23.506;2022-10-14T03:12:50;10.00;99.90
3478;DHT22;37937;61.490;23.506;2022-10-14T03:15:15;10.00;99.90
3478;DHT22;37937;61.490;23.506;2022-10-14T03:17:41;10.00;99.90
3478;DHT22;37937;61.490;23.506;2022-10-14T03:20:07;10.00;99.90
3478;DHT22;37937;61.490;23.506;2022-10-14T03:22:32;10.10;99.90
3478;DHT22;37937;61.490;23.506;2022-10-14T03:24:58;10.00;99.90
3478;DHT22;37937;61.490;23.506;2022-10-14T03:27:23;10.00;99.90
3478;DHT22;37937;61.490;23.506;2022-10-14T03:29:49;10.00;99.90
3478;DHT22;37937;61.490;23.506;2022-10-14T03:32:15;10.00;99.90
3478;DHT22;37937;61.490;23.506;2022-10-14T03:34:40;10.00;99.90
3478;DHT22;37937;61.490;23.506;2022-10-14T03:37:06;10.00;99.90
3478;DHT22;37937;61.490;23.506;2022-10-14T03:39:32;10.00;99.90
3478;DHT22;37937;61.490;23.506;2022-10-14T03:41:57;10.00;99.90
3478;DHT22;37937;61.490;23.506;2022-10-14T03:44:23;10.00;99.90
3478;DHT22;37937;61.490;23.506;2022-10-14T03:46:49;10.10;99.90
3478;DHT22;37937;61.490;23.506;2022-10-14T03:49:14;10.10;99.90
3478;DHT22;37937;61.490;23.506;2022-10-14T03:51:40;10.00;99.90
3478;DHT22;37937;61.490;23.506;2022-10-14T03:54:06;10.00;99.90
3478;DHT22;37937;61.490;23.506;2022-10-14T03:56:31;10.00;99.90
3478;DHT22;37937;61.490;23.506;2022-10-14T03:58:57;10.10;99.90
3478;DHT22;37937;61.490;23.506;2022-10-14T04:01:22;10.00;99.90
3478;DHT22;37937;61.490;23.506;2022-10-14T04:03:48;10.10;99.90
3478;DHT22;37937;61.490;23.506;2022-10-14T04:06:15;10.10;99.90
3478;DHT22;37937;61.490;23.506;2022-10-14T04:08:41;10.10;99.90
3478;DHT22;37937;61.490;23.506;2022-10-14T04:11:07;10.20;99.90
3478;DHT22;37937;61.490;23.506;2022-10-14T04:13:33;10.20;99.90
3478;DHT22;37937;61.490;23.506;2022-10-14T04:16:06;10.20;99.90
3478;DHT22;37937;61.490;23.506;2022-10-14T04:18:32;10.00;99.90
3478;DHT22;37937;61.490;23.506;2022-10-14T04:21:00;10.10;99.90
3478;DHT22;37937;61.490;23.506;2022-10-14T04:23:25;10.00;99.90
3478;DHT22;37937;61.490;23.506;2022-10-14T04:25:51;10.10;99.90
3478;DHT22;37937;61.490;23.506;2022-10-14T04:28:17;10.00;99.90
3478;DHT22;37937;61.490;23.506;2022-10-14T04:30:42;10.10;99.90
3478;DHT22;37937;61.490;23.506;2022-10-14T04:33:08;10.10;99.90
3478;DHT22;37937;61.490;23.506;2022-10-14T04:35:33;10.00;99.90
3478;DHT22;37937;61.490;23.506;2022-10-14T04:37:59;10.00;99.90
3478;DHT22;37937;61.490;23.506;2022-10-14T04:40:25;9.90;99.90
3478;DHT22;37937;61.490;23.506;2022-10-14T04:42:54;9.80;99.90
3478;DHT22;37937;61.490;23.506;2022-10-14T04:45:20;9.90;99.90
3478;DHT22;37937;61.490;23.506;2022-10-14T04:47:46;10.00;99.90
3478;DHT22;37937;61.490;23.506;2022-10-14T04:50:12;10.00;99.90
3478;DHT22;37937;61.490;23.506;2022-10-14T04:52:37;10.00;99.90
3478;DHT22;37937;61.490;23.506;2022-10-14T04:55:03;10.00;99.90
3478;DHT22;37937;61.490;23.506;2022-10-14T04:57:29;10.00;99.90
3478;DHT22;37937;61.490;23.506;2022-10-14T04:59:54;9.90;99.90
3478;DHT22;37937;61.490;23.506;2022-10-14T05:02:20;9.90;99.90
3478;DHT22;37937;61.490;23.506;2022-10-14T05:04:45;9.90;99.90
3478;DHT22;37937;61.490;23.506;2022-10-14T05:07:11;9.90;99.90
3478;DHT22;37937;61.490;23.506;2022-10-14T05:09:37;9.90;99.90
3478;DHT22;37937;61.490;23.506;2022-10-14T05:12:02;10.00;99.90
3478;DHT22;37937;61.490;23.506;2022-10-14T05:14:28;10.00;99.90
3478;DHT22;37937;61.490;23.506;2022-10-14T05:16:54;10.00;99.90
3478;DHT22;37937;61.490;23.506;2022-10-14T05:19:19;10.00;99.90
3478;DHT22;37937;61.490;23.506;2022-10-14T05:21:45;10.00;99.90
3478;DHT22;37937;61.490;23.506;2022-10-14T05:24:11;10.10;99.90
3478;DHT22;37937;61.490;23.506;2022-10-14T05:26:36;10.10;99.90
3478;DHT22;37937;61.490;23.506;2022-10-14T05:29:02;10.00;99.90
3478;DHT22;37937;61.490;23.506;2022-10-14T05:31:28;10.10;99.90
3478;DHT22;37937;61.490;23.506;2022-10-14T05:33:54;10.10;99.90
3478;DHT22;37937;61.490;23.506;2022-10-14T05:36:20;10.10;99.90
3478;DHT22;37937;61.490;23.506;2022-10-14T05:38:45;10.00;99.90
3478;DHT22;37937;61.490;23.506;2022-10-14T05:41:11;10.00;99.90
3478;DHT22;37937;61.490;23.506;2022-10-14T05:43:37;10.10;99.90
3478;DHT22;37937;61.490;23.506;2022-10-14T05:46:03;10.10;99.90
3478;DHT22;37937;61.490;23.506;2022-10-14T05:48:28;10.20;99.90
3478;DHT22;37937;61.490;23.506;2022-10-14T05:50:54;10.20;99.90
3478;DHT22;37937;61.490;23.506;2022-10-14T05:53:20;10.10;99.90
3478;DHT22;37937;61.490;23.506;2022-10-14T05:55:46;10.00;99.90
3478;DHT22;37937;61.490;23.506;2022-10-14T05:58:12;10.20;99.90
3478;DHT22;37937;61.490;23.506;2022-10-14T06:00:38;10.20;99.90
3478;DHT22;37937;61.490;23.506;2022-10-14T06:03:04;10.30;99.90
3478;DHT22;37937;61.490;23.506;2022-10-14T06:05:29;10.30;99.90
3478;DHT22;37937;61.490;23.506;2022-10-14T06:07:55;10.20;99.90
3478;DHT22;37937;61.490;23.506;2022-10-14T06:10:21;10.20;99.90
3478;DHT22;37937;61.490;23.506;2022-10-14T06:12:47;10.20;99.90
3478;DHT22;37937;61.490;23.506;2022-10-14T06:15:12;10.30;99.90
3478;DHT22;37937;61.490;23.506;2022-10-14T06:17:38;10.30;99.90
3478;DHT22;37937;61.490;23.506;2022-10-14T06:20:04;10.30;99.90
3478;DHT22;37937;61.490;23.506;2022-10-14T06:22:29;10.20;99.90
3478;DHT22;37937;61.490;23.506;2022-10-14T06:24:55;10.30;99.90
3478;DHT22;37937;61.490;23.506;2022-10-14T06:27:21;10.30;99.90
3478;DHT22;37937;61.490;23.506;2022-10-14T06:29:46;10.20;99.90
3478;DHT22;37937;61.490;23.506;2022-10-14T06:32:12;10.30;99.90
3478;DHT22;37937;61.490;23.506;2022-10-14T06:34:37;10.30;99.90
3478;DHT22;37937;61.490;23.506;2022-10-14T06:37:03;10.40;99.90
3478;DHT22;37937;61.490;23.506;2022-10-14T06:39:29;10.40;99.90
3478;DHT22;37937;61.490;23.506;2022-10-14T06:41:54;10.40;99.90
3478;DHT22;37937;61.490;23.506;2022-10-14T06:44:20;10.40;99.90
3478;DHT22;37937;61.490;23.506;2022-10-14T06:46:45;10.40;99.90
3478;DHT22;37937;61.490;23.506;2022-10-14T06:49:11;10.40;99.90
3478;DHT22;37937;61.490;23.506;2022-10-14T06:51:37;10.30;99.90
3478;DHT22;37937;61.490;23.506;2022-10-14T06:54:04;10.20;99.90
3478;DHT22;37937;61.490;23.506;2022-10-14T06:56:29;10.30;99.90
3478;DHT22;37937;61.490;23.506;2022-10-14T06:58:55;10.30;99.90
3478;DHT22;37937;61.490;23.506;2022-10-14T07:01:21;10.40;99.90
3478;DHT22;37937;61.490;23.506;2022-10-14T07:03:47;10.40;99.90
3478;DHT22;37937;61.490;23.506;2022-10-14T07:06:12;10.40;99.90
3478;DHT22;37937;61.490;23.506;2022-10-14T07:08:38;10.30;99.90
3478;DHT22;37937;61.490;23.506;2022-10-14T07:11:04;10.40;99.90
3478;DHT22;37937;61.490;23.506;2022-10-14T07:13:30;10.50;99.90
3478;DHT22;37937;61.490;23.506;2022-10-14T07:15:56;10.50;99.90
3478;DHT22;37937;61.490;23.506;2022-10-14T07:18:21;10.40;99.90
3478;DHT22;37937;61.490;23.506;2022-10-14T07:20:47;10.40;99.90
3478;DHT22;37937;61.490;23.506;2022-10-14T07:23:13;10.50;99.90
3478;DHT22;37937;61.490;23.506;2022-10-14T07:25:39;10.30;99.90
3478;DHT22;37937;61.490;23.506;2022-10-14T07:28:04;10.40;99.90
3478;DHT22;37937;61.490;23.506;2022-10-14T07:30:31;10.50;99.90
3478;DHT22;37937;61.490;23.506;2022-10-14T07:32:57;10.50;99.90
3478;DHT22;37937;61.490;23.506;2022-10-14T07:35:23;10.50;99.90
3478;DHT22;37937;61.490;23.506;2022-10-14T07:37:51;10.60;99.90
3478;DHT22;37937;61.490;23.506;2022-10-14T07:40:17;10.50;99.90
3478;DHT22;37937;61.490;23.506;2022-10-14T07:42:43;10.60;99.90
3478;DHT22;37937;61.490;23.506;2022-10-14T07:45:09;10.60;99.90
3478;DHT22;37937;61.490;23.506;2022-10-14T07:47:34;10.60;99.90
3478;DHT22;37937;61.490;23.506;2022-10-14T07:50:00;10.60;99.90
3478;DHT22;37937;61.490;23.506;2022-10-14T07:52:26;10.50;99.90
3478;DHT22;37937;61.490;23.506;2022-10-14T07:54:52;10.50;99.90
3478;DHT22;37937;61.490;23.506;2022-10-14T07:57:17;10.50;99.90
3478;DHT22;37937;61.490;23.506;2022-10-14T07:59:43;10.60;99.90
3478;DHT22;37937;61.490;23.506;2022-10-14T08:02:10;10.50;99.90
3478;DHT22;37937;61.490;23.506;2022-10-14T08:04:36;10.50;99.90
3478;DHT22;37937;61.490;23.506;2022-10-14T08:07:02;10.50;99.90
3478;DHT22;37937;61.490;23.506;2022-10-14T08:09:29;10.50;99.90
3478;DHT22;37937;61.490;23.506;2022-10-14T08:11:55;10.40;99.90
3478;DHT22;37937;61.490;23.506;2022-10-14T08:14:20;10.40;99.90
3478;DHT22;37937;61.490;23.506;2022-10-14T08:16:46;10.50;99.90
3478;DHT22;37937;61.490;23.506;2022-10-14T08:19:12;10.50;99.90
3478;DHT22;37937;61.490;23.506;2022-10-14T08:21:38;10.50;99.90
3478;DHT22;37937;61.490;23.506;2022-10-14T08:24:04;10.60;99.90
3478;DHT22;37937;61.490;23.506;2022-10-14T08:26:34;10.60;99.90
3478;DHT22;37937;61.490;23.506;2022-10-14T08:29:00;10.50;99.90
3478;DHT22;37937;61.490;23.506;2022-10-14T08:31:26;10.60;99.90
3478;DHT22;37937;61.490;23.506;2022-10-14T08:33:52;10.50;99.90
3478;DHT22;37937;61.490;23.506;2022-10-14T08:36:18;10.40;99.90
3478;DHT22;37937;61.490;23.506;2022-10-14T08:38:44;10.40;99.90
3478;DHT22;37937;61.490;23.506;2022-10-14T08:43:46;10.50;99.90
3478;DHT22;37937;61.490;23.506;2022-10-14T08:48:42;10.40;99.90
3478;DHT22;37937;61.490;23.506;2022-10-14T08:51:17;10.50;99.90
3478;DHT22;37937;61.490;23.506;2022-10-14T08:53:48;10.60;99.90
3478;DHT22;37937;61.490;23.506;2022-10-14T08:56:14;10.60;99.90
3478;DHT22;37937;61.490;23.506;2022-10-14T08:58:41;10.80;99.90
3478;DHT22;37937;61.490;23.506;2022-10-14T09:01:18;10.90;99.90
3478;DHT22;37937;61.490;23.506;2022-10-14T09:03:45;10.70;99.90
3478;DHT22;37937;61.490;23.506;2022-10-14T09:06:14;10.70;99.90
3478;DHT22;37937;61.490;23.506;2022-10-14T09:08:42;10.70;99.90
3478;DHT22;37937;61.490;23.506;2022-10-14T09:11:09;10.70;99.90
3478;DHT22;37937;61.490;23.506;2022-10-14T09:13:40;10.80;99.90
3478;DHT22;37937;61.490;23.506;2022-10-14T09:16:08;10.80;99.90
3478;DHT22;37937;61.490;23.506;2022-10-14T09:18:44;10.90;99.90
3478;DHT22;37937;61.490;23.506;2022-10-14T09:21:25;10.80;99.90
3478;DHT22;37937;61.490;23.506;2022-10-14T09:24:34;10.90;99.90
3478;DHT22;37937;61.490;23.506;2022-10-14T09:26:42;10.80;99.90
3478;DHT22;37937;61.490;23.506;2022-10-14T09:31:46;11.10;99.90
3478;DHT22;37937;61.490;23.506;2022-10-14T09:34:18;11.00;99.90
3478;DHT22;37937;61.490;23.506;2022-10-14T09:36:45;11.10;99.90
3478;DHT22;37937;61.490;23.506;2022-10-14T09:39:12;11.00;99.90
3478;DHT22;37937;61.490;23.506;2022-10-14T09:41:38;11.10;99.90
3478;DHT22;37937;61.490;23.506;2022-10-14T09:44:14;11.10;99.90
3478;DHT22;37937;61.490;23.506;2022-10-14T09:46:45;11.10;99.90
3478;DHT22;37937;61.490;23.506;2022-10-14T09:49:14;11.10;99.90
3478;DHT22;37937;61.490;23.506;2022-10-14T09:51:40;11.20;99.90
3478;DHT22;37937;61.490;23.506;2022-10-14T09:54:14;11.20;99.90
3478;DHT22;37937;61.490;23.506;2022-10-14T09:56:44;10.90;99.90
3478;DHT22;37937;61.490;23.506;2022-10-14T09:59:21;11.00;99.90
3478;DHT22;37937;61.490;23.506;2022-10-14T10:01:48;11.10;99.90
3478;DHT22;37937;61.490;23.506;2022-10-14T10:04:25;11.30;99.90
3478;DHT22;37937;61.490;23.506;2022-10-14T10:06:54;11.40;99.90
3478;DHT22;37937;61.490;23.506;2022-10-14T10:09:20;11.50;99.90
3478;DHT22;37937;61.490;23.506;2022-10-14T10:11:46;11.30;99.90
3478;DHT22;37937;61.490;23.506;2022-10-14T10:14:16;11.40;99.90
3478;DHT22;37937;61.490;23.506;2022-10-14T10:16:45;11.30;99.90
3478;DHT22;37937;61.490;23.506;2022-10-14T10:19:28;11.30;99.90
3478;DHT22;37937;61.490;23.506;2022-10-14T10:21:54;11.10;99.90
3478;DHT22;37937;61.490;23.506;2022-10-14T10:24:21;11.10;99.90
3478;DHT22;37937;61.490;23.506;2022-10-14T10:26:48;11.10;99.90
3478;DHT22;37937;61.490;23.506;2022-10-14T10:29:23;11.20;99.90
3478;DHT22;37937;61.490;23.506;2022-10-14T10:39:57;11.20;99.90
3478;DHT22;37937;61.490;23.506;2022-10-14T10:48:05;11.10;99.90
3478;DHT22;37937;61.490;23.506;2022-10-14T10:55:59;11.20;99.90
3478;DHT22;37937;61.490;23.506;2022-10-14T11:03:46;11.30;99.90
3478;DHT22;37937;61.490;23.506;2022-10-14T11:09:04;11.40;99.90
3478;DHT22;37937;61.490;23.506;2022-10-14T11:11:58;11.40;99.90
3478;DHT22;37937;61.490;23.506;2022-10-14T11:17:26;11.50;99.90
3478;DHT22;37937;61.490;23.506;2022-10-14T11:27:50;11.40;99.90
3478;DHT22;37937;61.490;23.506;2022-10-14T11:30:18;11.50;99.90
3478;DHT22;37937;61.490;23.506;2022-10-14T11:40:36;11.60;99.90
3478;DHT22;37937;61.490;23.506;2022-10-14T11:43:07;11.50;99.90
3478;DHT22;37937;61.490;23.506;2022-10-14T11:45:43;11.50;99.90
3478;DHT22;37937;61.490;23.506;2022-10-14T11:48:32;11.50;99.90
3478;DHT22;37937;61.490;23.506;2022-10-14T11:51:21;11.50;99.90
3478;DHT22;37937;61.490;23.506;2022-10-14T12:01:43;11.50;99.90
3478;DHT22;37937;61.490;23.506;2022-10-14T12:04:11;11.50;99.90
3478;DHT22;37937;61.490;23.506;2022-10-14T12:06:42;11.50;99.90
3478;DHT22;37937;61.490;23.506;2022-10-14T12:11:51;11.60;99.90
3478;DHT22;37937;61.490;23.506;2022-10-14T12:14:22;11.70;99.90
3478;DHT22;37937;61.490;23.506;2022-10-14T12:16:50;11.80;99.90
3478;DHT22;37937;61.490;23.506;2022-10-14T12:19:25;11.80;99.90
3478;DHT22;37937;61.490;23.506;2022-10-14T12:24:34;12.00;99.90
3478;DHT22;37937;61.490;23.506;2022-10-14T12:27:02;12.00;99.90
3478;DHT22;37937;61.490;23.506;2022-10-14T12:29:42;12.20;99.90
3478;DHT22;37937;61.490;23.506;2022-10-14T12:34:41;12.20;99.90
3478;DHT22;37937;61.490;23.506;2022-10-14T12:39:51;12.30;99.90
3478;DHT22;37937;61.490;23.506;2022-10-14T12:42:17;12.20;99.90
3478;DHT22;37937;61.490;23.506;2022-10-14T12:49:48;12.60;99.90
3478;DHT22;37937;61.490;23.506;2022-10-14T12:52:20;12.50;99.90
3478;DHT22;37937;61.490;23.506;2022-10-14T12:54:48;12.40;99.90
3478;DHT22;37937;61.490;23.506;2022-10-14T12:57:21;12.50;99.90
3478;DHT22;37937;61.490;23.506;2022-10-14T12:59:50;12.50;99.90
3478;DHT22;37937;61.490;23.506;2022-10-14T13:02:29;12.30;99.90
3478;DHT22;37937;61.490;23.506;2022-10-14T13:05:00;12.30;99.90
3478;DHT22;37937;61.490;23.506;2022-10-14T13:07:31;12.30;99.90
3478;DHT22;37937;61.490;23.506;2022-10-14T13:12:50;12.30;99.90
3478;DHT22;37937;61.490;23.506;2022-10-14T13:15:31;12.40;99.90
3478;DHT22;37937;61.490;23.506;2022-10-14T13:18:13;12.20;99.90
3478;DHT22;37937;61.490;23.506;2022-10-14T13:39:24;11.80;99.90
3478;DHT22;37937;61.490;23.506;2022-10-14T13:41:50;11.60;99.90
3478;DHT22;37937;61.490;23.506;2022-10-14T13:44:16;11.50;99.90
3478;DHT22;37937;61.490;23.506;2022-10-14T13:46:46;11.50;99.90
3478;DHT22;37937;61.490;23.506;2022-10-14T13:49:17;11.50;99.90
3478;DHT22;37937;61.490;23.506;2022-10-14T13:54:14;11.40;99.90
3478;DHT22;37937;61.490;23.506;2022-10-14T13:56:40;11.50;99.90
3478;DHT22;37937;61.490;23.506;2022-10-14T13:59:19;11.40;99.90
3478;DHT22;37937;61.490;23.506;2022-10-14T14:01:47;11.40;99.90
3478;DHT22;37937;61.490;23.506;2022-10-14T14:04:18;11.40;99.90
3478;DHT22;37937;61.490;23.506;2022-10-14T14:06:46;11.30;99.90
3478;DHT22;37937;61.490;23.506;2022-10-14T14:09:16;11.30;99.90
3478;DHT22;37937;61.490;23.506;2022-10-14T14:11:43;11.30;99.90
3478;DHT22;37937;61.490;23.506;2022-10-14T14:16:39;11.40;99.90
3478;DHT22;37937;61.490;23.506;2022-10-14T14:19:05;11.40;99.90
3478;DHT22;37937;61.490;23.506;2022-10-14T14:21:31;11.40;99.90
3478;DHT22;37937;61.490;23.506;2022-10-14T14:23:58;11.50;99.90
3478;DHT22;37937;61.490;23.506;2022-10-14T14:28:53;11.30;99.90
3478;DHT22;37937;61.490;23.506;2022-10-14T14:31:19;11.40;99.90
3478;DHT22;37937;61.490;23.506;2022-10-14T14:33:46;11.30;99.90
3478;DHT22;37937;61.490;23.506;2022-10-14T14:36:14;11.30;99.90
3478;DHT22;37937;61.490;23.506;2022-10-14T14:39:00;11.20;99.90
3478;DHT22;37937;61.490;23.506;2022-10-14T14:41:27;11.30;99.90
3478;DHT22;37937;61.490;23.506;2022-10-14T14:43:57;11.30;99.90
3478;DHT22;37937;61.490;23.506;2022-10-14T14:46:27;11.20;99.90
3478;DHT22;37937;61.490;23.506;2022-10-14T14:48:54;11.30;99.90
3478;DHT22;37937;61.490;23.506;2022-10-14T14:51:20;11.40;99.90
3478;DHT22;37937;61.490;23.506;2022-10-14T14:53:47;11.40;99.90
3478;DHT22;37937;61.490;23.506;2022-10-14T14:56:14;11.40;99.90
3478;DHT22;37937;61.490;23.506;2022-10-14T14:58:43;11.30;99.90
3478;DHT22;37937;61.490;23.506;2022-10-14T15:01:21;11.40;99.90
3478;DHT22;37937;61.490;23.506;2022-10-14T15:06:22;11.30;99.90
3478;DHT22;37937;61.490;23.506;2022-10-14T15:08:52;11.30;99.90
3478;DHT22;37937;61.490;23.506;2022-10-14T15:11:18;11.20;99.90
3478;DHT22;37937;61.490;23.506;2022-10-14T15:13:55;11.20;99.90
3478;DHT22;37937;61.490;23.506;2022-10-14T15:16:34;11.20;99.90
3478;DHT22;37937;61.490;23.506;2022-10-14T15:21:44;11.10;99.90
3478;DHT22;37937;61.490;23.506;2022-10-14T15:24:14;11.10;99.90
3478;DHT22;37937;61.490;23.506;2022-10-14T15:26:40;10.90;99.90
3478;DHT22;37937;61.490;23.506;2022-10-14T15:31:34;10.80;99.90
3478;DHT22;37937;61.490;23.506;2022-10-14T15:34:00;10.80;99.90
3478;DHT22;37937;61.490;23.506;2022-10-14T15:36:30;10.80;99.90
3478;DHT22;37937;61.490;23.506;2022-10-14T15:38:56;10.70;99.90
3478;DHT22;37937;61.490;23.506;2022-10-14T15:41:28;10.80;99.90
3478;DHT22;37937;61.490;23.506;2022-10-14T15:43:54;10.90;99.90
3478;DHT22;37937;61.490;23.506;2022-10-14T15:46:20;10.90;99.90
3478;DHT22;37937;61.490;23.506;2022-10-14T15:49:10;10.90;99.90
3478;DHT22;37937;61.490;23.506;2022-10-14T15:51:38;10.90;99.90
3478;DHT22;37937;61.490;23.506;2022-10-14T15:54:03;10.90;99.90
3478;DHT22;37937;61.490;23.506;2022-10-14T15:56:30;10.90;99.90
3478;DHT22;37937;61.490;23.506;2022-10-14T15:58:56;10.80;99.90
3478;DHT22;37937;61.490;23.506;2022-10-14T16:01:21;10.80;99.90
3478;DHT22;37937;61.490;23.506;2022-10-14T16:03:50;10.90;99.90
3478;DHT22;37937;61.490;23.506;2022-10-14T16:06:19;10.80;99.90
3478;DHT22;37937;61.490;23.506;2022-10-14T16:08:46;10.80;99.90
3478;DHT22;37937;61.490;23.506;2022-10-14T16:11:16;10.80;99.90
3478;DHT22;37937;61.490;23.506;2022-10-14T16:13:43;10.70;99.90
3478;DHT22;37937;61.490;23.506;2022-10-14T16:16:09;10.70;99.90
3478;DHT22;37937;61.490;23.506;2022-10-14T16:18:36;10.70;99.90
3478;DHT22;37937;61.490;23.506;2022-10-14T16:21:01;10.70;99.90
3478;DHT22;37937;61.490;23.506;2022-10-14T16:23:27;10.70;99.90
3478;DHT22;37937;61.490;23.506;2022-10-14T16:25:53;10.60;99.90
3478;DHT22;37937;61.490;23.506;2022-10-14T16:28:18;10.60;99.90
3478;DHT22;37937;61.490;23.506;2022-10-14T16:30:47;10.70;99.90
3478;DHT22;37937;61.490;23.506;2022-10-14T16:33:16;10.60;99.90
3478;DHT22;37937;61.490;23.506;2022-10-14T16:35:42;10.60;99.90
3478;DHT22;37937;61.490;23.506;2022-10-14T16:38:11;10.50;99.90
3478;DHT22;37937;61.490;23.506;2022-10-14T16:40:37;10.60;99.90
3478;DHT22;37937;61.490;23.506;2022-10-14T16:43:03;10.70;99.90
3478;DHT22;37937;61.490;23.506;2022-10-14T16:45:28;10.60;99.90
3478;DHT22;37937;61.490;23.506;2022-10-14T16:47:54;10.60;99.90
3478;DHT22;37937;61.490;23.506;2022-10-14T16:50:20;10.60;99.90
3478;DHT22;37937;61.490;23.506;2022-10-14T16:52:45;10.70;99.90
3478;DHT22;37937;61.490;23.506;2022-10-14T16:55:29;10.70;99.90
3478;DHT22;37937;61.490;23.506;2022-10-14T16:57:55;10.70;99.90
3478;DHT22;37937;61.490;23.506;2022-10-14T17:00:21;10.60;99.90
3478;DHT22;37937;61.490;23.506;2022-10-14T17:02:46;10.70;99.90
3478;DHT22;37937;61.490;23.506;2022-10-14T17:05:12;10.80;99.90
3478;DHT22;37937;61.490;23.506;2022-10-14T17:07:38;10.90;99.90
3478;DHT22;37937;61.490;23.506;2022-10-14T17:10:04;10.90;99.90
3478;DHT22;37937;61.490;23.506;2022-10-14T17:12:30;10.90;99.90
3478;DHT22;37937;61.490;23.506;2022-10-14T17:14:55;10.80;99.90
3478;DHT22;37937;61.490;23.506;2022-10-14T17:17:21;10.80;99.90
3478;DHT22;37937;61.490;23.506;2022-10-14T17:19:48;10.70;99.90
3478;DHT22;37937;61.490;23.506;2022-10-14T17:22:16;10.80;99.90
3478;DHT22;37937;61.490;23.506;2022-10-14T17:24:44;10.80;99.90
3478;DHT22;37937;61.490;23.506;2022-10-14T17:27:09;10.60;99.90
3478;DHT22;37937;61.490;23.506;2022-10-14T17:29:36;10.60;99.90
3478;DHT22;37937;61.490;23.506;2022-10-14T17:32:01;10.70;99.90
3478;DHT22;37937;61.490;23.506;2022-10-14T17:34:27;10.60;99.90
3478;DHT22;37937;61.490;23.506;2022-10-14T17:36:52;10.50;99.90
3478;DHT22;37937;61.490;23.506;2022-10-14T17:39:18;10.50;99.90
3478;DHT22;37937;61.490;23.506;2022-10-14T17:41:44;10.60;99.90
3478;DHT22;37937;61.490;23.506;2022-10-14T17:44:10;10.60;99.90
3478;DHT22;37937;61.490;23.506;2022-10-14T17:46:35;10.70;99.90
3478;DHT22;37937;61.490;23.506;2022-10-14T17:49:03;10.50;99.90